sensor_id;sensor_type;location;lat;lon;timestamp;P1;durP1;ratioP1;P2;durP2;ratioP2
71513;SDS011;59335;46.652;21.272;2022-12-18T00:00:30;22.17;;;14.10;;
71513;SDS011;59335;46.652;21.272;2022-12-18T00:03:33;21.52;;;13.80;;
71513;SDS011;59335;46.652;21.272;2022-12-18T00:06:36;24.00;;;14.48;;
71513;SDS011;59335;46.652;21.272;2022-12-18T00:09:39;21.33;;;14.13;;
71513;SDS011;59335;46.652;21.272;2022-12-18T00:12:42;20.75;;;13.25;;
71513;SDS011;59335;46.652;21.272;2022-12-18T00:15:44;21.08;;;13.65;;
71513;SDS011;59335;46.652;21.272;2022-12-18T00:18:51;22.23;;;14.00;;
71513;SDS011;59335;46.652;21.272;2022-12-18T00:21:56;22.80;;;13.98;;
71513;SDS011;59335;46.652;21.272;2022-12-18T00:25:02;22.63;;;13.70;;
71513;SDS011;59335;46.652;21.272;2022-12-18T00:28:05;21.15;;;13.93;;
71513;SDS011;59335;46.652;21.272;2022-12-18T00:31:11;20.40;;;12.93;;
71513;SDS011;59335;46.652;21.272;2022-12-18T00:34:17;22.48;;;13.65;;
71513;SDS011;59335;46.652;21.272;2022-12-18T00:37:19;21.00;;;13.52;;
71513;SDS011;59335;46.652;21.272;2022-12-18T00:40:25;21.77;;;13.60;;
71513;SDS011;59335;46.652;21.272;2022-12-18T00:43:28;22.85;;;14.25;;
71513;SDS011;59335;46.652;21.272;2022-12-18T00:46:31;22.80;;;14.70;;
71513;SDS011;59335;46.652;21.272;2022-12-18T00:49:34;21.63;;;13.73;;
71513;SDS011;59335;46.652;21.272;2022-12-18T00:52:37;22.15;;;14.00;;
71513;SDS011;59335;46.652;21.272;2022-12-18T00:55:39;21.93;;;13.77;;
71513;SDS011;59335;46.652;21.272;2022-12-18T00:58:43;20.52;;;12.98;;
71513;SDS011;59335;46.652;21.272;2022-12-18T01:01:45;23.45;;;14.23;;
71513;SDS011;59335;46.652;21.272;2022-12-18T01:04:49;22.33;;;14.20;;
71513;SDS011;59335;46.652;21.272;2022-12-18T01:07:54;23.02;;;14.65;;
71513;SDS011;59335;46.652;21.272;2022-12-18T01:10:58;21.50;;;13.30;;
71513;SDS011;59335;46.652;21.272;2022-12-18T01:14:01;20.63;;;13.43;;
71513;SDS011;59335;46.652;21.272;2022-12-18T01:17:04;23.42;;;13.82;;
71513;SDS011;59335;46.652;21.272;2022-12-18T01:20:08;21.27;;;13.50;;
71513;SDS011;59335;46.652;21.272;2022-12-18T01:23:12;21.88;;;13.57;;
71513;SDS011;59335;46.652;21.272;2022-12-18T01:26:15;23.87;;;14.27;;
71513;SDS011;59335;46.652;21.272;2022-12-18T01:29:18;24.73;;;14.90;;
71513;SDS011;59335;46.652;21.272;2022-12-18T01:32:21;20.90;;;13.80;;
71513;SDS011;59335;46.652;21.272;2022-12-18T01:35:24;22.70;;;14.27;;
71513;SDS011;59335;46.652;21.272;2022-12-18T01:38:28;25.02;;;14.20;;
71513;SDS011;59335;46.652;21.272;2022-12-18T01:41:31;20.80;;;13.53;;
71513;SDS011;59335;46.652;21.272;2022-12-18T01:44:56;20.55;;;13.52;;
71513;SDS011;59335;46.652;21.272;2022-12-18T01:48:29;21.80;;;14.65;;
71513;SDS011;59335;46.652;21.272;2022-12-18T01:51:32;20.10;;;13.02;;
71513;SDS011;59335;46.652;21.272;2022-12-18T01:54:35;22.17;;;13.52;;
71513;SDS011;59335;46.652;21.272;2022-12-18T01:57:38;20.47;;;12.67;;
71513;SDS011;59335;46.652;21.272;2022-12-18T02:00:42;21.23;;;13.43;;
71513;SDS011;59335;46.652;21.272;2022-12-18T02:03:46;20.85;;;13.52;;
71513;SDS011;59335;46.652;21.272;2022-12-18T02:06:51;20.75;;;12.63;;
71513;SDS011;59335;46.652;21.272;2022-12-18T02:13:36;21.27;;;13.38;;
71513;SDS011;59335;46.652;21.272;2022-12-18T02:17:03;20.43;;;12.87;;
71513;SDS011;59335;46.652;21.272;2022-12-18T02:26:50;20.05;;;12.63;;
71513;SDS011;59335;46.652;21.272;2022-12-18T02:30:07;20.50;;;13.02;;
71513;SDS011;59335;46.652;21.272;2022-12-18T02:33:12;18.97;;;12.03;;
71513;SDS011;59335;46.652;21.272;2022-12-18T02:36:17;19.58;;;12.07;;
71513;SDS011;59335;46.652;21.272;2022-12-18T02:39:23;19.00;;;12.63;;
71513;SDS011;59335;46.652;21.272;2022-12-18T02:42:36;20.23;;;12.23;;
71513;SDS011;59335;46.652;21.272;2022-12-18T02:45:49;18.75;;;12.57;;
71513;SDS011;59335;46.652;21.272;2022-12-18T02:49:09;20.97;;;12.53;;
71513;SDS011;59335;46.652;21.272;2022-12-18T02:52:42;19.00;;;11.02;;
71513;SDS011;59335;46.652;21.272;2022-12-18T02:59:30;20.38;;;12.18;;
71513;SDS011;59335;46.652;21.272;2022-12-18T03:02:39;18.20;;;11.30;;
71513;SDS011;59335;46.652;21.272;2022-12-18T03:05:52;18.73;;;11.90;;
71513;SDS011;59335;46.652;21.272;2022-12-18T03:09:09;20.52;;;11.85;;
71513;SDS011;59335;46.652;21.272;2022-12-18T03:12:18;19.30;;;11.73;;
71513;SDS011;59335;46.652;21.272;2022-12-18T03:15:36;19.27;;;11.27;;
71513;SDS011;59335;46.652;21.272;2022-12-18T03:18:49;18.20;;;11.70;;
71513;SDS011;59335;46.652;21.272;2022-12-18T03:21:55;19.00;;;11.67;;
71513;SDS011;59335;46.652;21.272;2022-12-18T03:25:00;17.60;;;11.77;;
71513;SDS011;59335;46.652;21.272;2022-12-18T03:28:07;17.58;;;11.38;;
71513;SDS011;59335;46.652;21.272;2022-12-18T03:31:14;19.65;;;12.23;;
71513;SDS011;59335;46.652;21.272;2022-12-18T03:34:26;18.80;;;11.25;;
71513;SDS011;59335;46.652;21.272;2022-12-18T03:37:35;20.10;;;12.07;;
71513;SDS011;59335;46.652;21.272;2022-12-18T03:47:13;18.00;;;11.45;;
71513;SDS011;59335;46.652;21.272;2022-12-18T03:50:22;19.85;;;12.05;;
71513;SDS011;59335;46.652;21.272;2022-12-18T03:53:39;17.43;;;11.13;;
71513;SDS011;59335;46.652;21.272;2022-12-18T03:57:06;18.23;;;11.27;;
71513;SDS011;59335;46.652;21.272;2022-12-18T04:00:14;17.65;;;10.95;;
71513;SDS011;59335;46.652;21.272;2022-12-18T04:03:33;17.08;;;10.80;;
71513;SDS011;59335;46.652;21.272;2022-12-18T04:06:37;18.42;;;11.07;;
71513;SDS011;59335;46.652;21.272;2022-12-18T04:09:44;17.83;;;10.53;;
71513;SDS011;59335;46.652;21.272;2022-12-18T04:12:49;19.00;;;11.40;;
71513;SDS011;59335;46.652;21.272;2022-12-18T04:15:52;17.05;;;11.38;;
71513;SDS011;59335;46.652;21.272;2022-12-18T04:18:57;17.73;;;10.85;;
71513;SDS011;59335;46.652;21.272;2022-12-18T04:22:03;17.63;;;11.13;;
71513;SDS011;59335;46.652;21.272;2022-12-18T04:25:13;17.30;;;10.60;;
71513;SDS011;59335;46.652;21.272;2022-12-18T04:28:28;17.10;;;10.63;;
71513;SDS011;59335;46.652;21.272;2022-12-18T04:31:31;18.45;;;11.65;;
71513;SDS011;59335;46.652;21.272;2022-12-18T04:34:34;17.60;;;10.75;;
71513;SDS011;59335;46.652;21.272;2022-12-18T04:37:37;17.67;;;10.80;;
71513;SDS011;59335;46.652;21.272;2022-12-18T04:40:40;15.97;;;10.37;;
71513;SDS011;59335;46.652;21.272;2022-12-18T04:43:51;18.08;;;10.75;;
71513;SDS011;59335;46.652;21.272;2022-12-18T04:46:54;18.00;;;11.18;;
71513;SDS011;59335;46.652;21.272;2022-12-18T04:49:58;17.05;;;10.90;;
71513;SDS011;59335;46.652;21.272;2022-12-18T04:53:02;17.70;;;11.43;;
71513;SDS011;59335;46.652;21.272;2022-12-18T04:56:12;17.60;;;10.73;;
71513;SDS011;59335;46.652;21.272;2022-12-18T04:59:16;17.55;;;10.75;;
71513;SDS011;59335;46.652;21.272;2022-12-18T05:02:18;17.52;;;10.93;;
71513;SDS011;59335;46.652;21.272;2022-12-18T05:05:22;16.42;;;10.20;;
71513;SDS011;59335;46.652;21.272;2022-12-18T05:08:25;17.88;;;10.57;;
71513;SDS011;59335;46.652;21.272;2022-12-18T05:11:29;16.87;;;10.50;;
71513;SDS011;59335;46.652;21.272;2022-12-18T05:14:32;17.10;;;10.75;;
71513;SDS011;59335;46.652;21.272;2022-12-18T05:17:34;18.80;;;11.30;;
71513;SDS011;59335;46.652;21.272;2022-12-18T05:20:37;17.90;;;10.90;;
71513;SDS011;59335;46.652;21.272;2022-12-18T05:23:39;16.95;;;11.07;;
71513;SDS011;59335;46.652;21.272;2022-12-18T05:26:43;17.87;;;10.80;;
71513;SDS011;59335;46.652;21.272;2022-12-18T05:29:45;16.98;;;10.68;;
71513;SDS011;59335;46.652;21.272;2022-12-18T05:32:48;15.02;;;10.13;;
71513;SDS011;59335;46.652;21.272;2022-12-18T05:35:55;17.42;;;11.10;;
71513;SDS011;59335;46.652;21.272;2022-12-18T05:39:02;17.27;;;11.20;;
71513;SDS011;59335;46.652;21.272;2022-12-18T05:42:05;18.27;;;10.57;;
71513;SDS011;59335;46.652;21.272;2022-12-18T05:45:08;17.85;;;10.45;;
71513;SDS011;59335;46.652;21.272;2022-12-18T05:48:11;19.30;;;11.40;;
71513;SDS011;59335;46.652;21.272;2022-12-18T05:51:16;18.52;;;10.75;;
71513;SDS011;59335;46.652;21.272;2022-12-18T05:54:20;17.50;;;10.38;;
71513;SDS011;59335;46.652;21.272;2022-12-18T05:57:23;17.77;;;10.30;;
71513;SDS011;59335;46.652;21.272;2022-12-18T06:00:25;16.90;;;10.25;;
71513;SDS011;59335;46.652;21.272;2022-12-18T06:03:28;18.33;;;10.32;;
71513;SDS011;59335;46.652;21.272;2022-12-18T06:06:35;17.08;;;11.13;;
71513;SDS011;59335;46.652;21.272;2022-12-18T06:09:38;17.15;;;10.82;;
71513;SDS011;59335;46.652;21.272;2022-12-18T06:12:41;17.20;;;9.73;;
71513;SDS011;59335;46.652;21.272;2022-12-18T06:15:43;19.42;;;11.00;;
71513;SDS011;59335;46.652;21.272;2022-12-18T06:18:47;17.35;;;10.95;;
71513;SDS011;59335;46.652;21.272;2022-12-18T06:21:50;16.02;;;10.10;;
71513;SDS011;59335;46.652;21.272;2022-12-18T06:24:53;17.17;;;10.27;;
71513;SDS011;59335;46.652;21.272;2022-12-18T06:27:55;18.30;;;10.77;;
71513;SDS011;59335;46.652;21.272;2022-12-18T06:30:58;17.33;;;10.20;;
71513;SDS011;59335;46.652;21.272;2022-12-18T06:34:04;18.98;;;11.30;;
71513;SDS011;59335;46.652;21.272;2022-12-18T06:37:07;17.58;;;10.02;;
71513;SDS011;59335;46.652;21.272;2022-12-18T06:40:11;17.65;;;11.40;;
71513;SDS011;59335;46.652;21.272;2022-12-18T06:43:14;16.93;;;10.83;;
71513;SDS011;59335;46.652;21.272;2022-12-18T06:46:16;18.02;;;10.80;;
71513;SDS011;59335;46.652;21.272;2022-12-18T06:49:19;17.48;;;10.30;;
71513;SDS011;59335;46.652;21.272;2022-12-18T06:52:22;17.92;;;10.52;;
71513;SDS011;59335;46.652;21.272;2022-12-18T06:55:24;16.58;;;10.00;;
71513;SDS011;59335;46.652;21.272;2022-12-18T06:58:27;18.53;;;10.60;;
71513;SDS011;59335;46.652;21.272;2022-12-18T07:01:30;17.30;;;10.52;;
71513;SDS011;59335;46.652;21.272;2022-12-18T07:04:33;18.45;;;11.02;;
71513;SDS011;59335;46.652;21.272;2022-12-18T07:07:35;19.48;;;11.05;;
71513;SDS011;59335;46.652;21.272;2022-12-18T07:10:42;16.58;;;10.95;;
71513;SDS011;59335;46.652;21.272;2022-12-18T07:13:50;18.20;;;10.63;;
71513;SDS011;59335;46.652;21.272;2022-12-18T07:16:52;17.02;;;10.30;;
71513;SDS011;59335;46.652;21.272;2022-12-18T07:19:56;17.58;;;10.35;;
71513;SDS011;59335;46.652;21.272;2022-12-18T07:22:58;18.33;;;10.35;;
71513;SDS011;59335;46.652;21.272;2022-12-18T07:26:04;17.35;;;10.90;;
71513;SDS011;59335;46.652;21.272;2022-12-18T07:29:08;18.77;;;10.70;;
71513;SDS011;59335;46.652;21.272;2022-12-18T07:32:11;18.35;;;10.75;;
71513;SDS011;59335;46.652;21.272;2022-12-18T07:35:14;18.20;;;11.13;;
71513;SDS011;59335;46.652;21.272;2022-12-18T07:38:23;16.85;;;10.45;;
71513;SDS011;59335;46.652;21.272;2022-12-18T07:41:25;17.17;;;11.38;;
71513;SDS011;59335;46.652;21.272;2022-12-18T07:44:28;17.93;;;11.07;;
71513;SDS011;59335;46.652;21.272;2022-12-18T07:47:30;16.27;;;9.80;;
71513;SDS011;59335;46.652;21.272;2022-12-18T07:50:37;16.30;;;9.77;;
71513;SDS011;59335;46.652;21.272;2022-12-18T07:53:40;17.20;;;10.48;;
71513;SDS011;59335;46.652;21.272;2022-12-18T07:56:44;16.65;;;10.25;;
71513;SDS011;59335;46.652;21.272;2022-12-18T07:59:47;17.93;;;10.73;;
71513;SDS011;59335;46.652;21.272;2022-12-18T08:02:50;17.52;;;10.63;;
71513;SDS011;59335;46.652;21.272;2022-12-18T08:05:52;17.15;;;11.05;;
71513;SDS011;59335;46.652;21.272;2022-12-18T08:09:00;17.60;;;10.65;;
71513;SDS011;59335;46.652;21.272;2022-12-18T08:12:02;17.33;;;10.70;;
71513;SDS011;59335;46.652;21.272;2022-12-18T08:15:06;16.20;;;10.30;;
71513;SDS011;59335;46.652;21.272;2022-12-18T08:18:09;16.90;;;10.52;;
71513;SDS011;59335;46.652;21.272;2022-12-18T08:24:22;16.88;;;10.30;;
71513;SDS011;59335;46.652;21.272;2022-12-18T08:27:25;16.63;;;10.15;;
71513;SDS011;59335;46.652;21.272;2022-12-18T08:30:31;16.47;;;9.73;;
71513;SDS011;59335;46.652;21.272;2022-12-18T08:33:34;16.98;;;10.63;;
71513;SDS011;59335;46.652;21.272;2022-12-18T08:36:37;17.45;;;11.07;;
71513;SDS011;59335;46.652;21.272;2022-12-18T08:39:40;17.40;;;10.20;;
71513;SDS011;59335;46.652;21.272;2022-12-18T08:42:43;17.48;;;10.98;;
71513;SDS011;59335;46.652;21.272;2022-12-18T08:46:04;17.63;;;10.73;;
71513;SDS011;59335;46.652;21.272;2022-12-18T08:49:07;17.65;;;10.35;;
71513;SDS011;59335;46.652;21.272;2022-12-18T08:52:11;17.58;;;10.55;;
71513;SDS011;59335;46.652;21.272;2022-12-18T08:55:16;17.85;;;10.13;;
71513;SDS011;59335;46.652;21.272;2022-12-18T08:58:19;18.13;;;10.35;;
71513;SDS011;59335;46.652;21.272;2022-12-18T09:01:22;17.73;;;10.90;;
71513;SDS011;59335;46.652;21.272;2022-12-18T09:04:26;17.88;;;10.65;;
71513;SDS011;59335;46.652;21.272;2022-12-18T09:07:28;19.05;;;11.05;;
71513;SDS011;59335;46.652;21.272;2022-12-18T09:10:31;17.80;;;11.07;;
71513;SDS011;59335;46.652;21.272;2022-12-18T09:13:34;18.38;;;11.00;;
71513;SDS011;59335;46.652;21.272;2022-12-18T09:16:36;18.63;;;10.60;;
71513;SDS011;59335;46.652;21.272;2022-12-18T09:19:39;17.60;;;10.25;;
71513;SDS011;59335;46.652;21.272;2022-12-18T09:22:42;18.35;;;10.80;;
71513;SDS011;59335;46.652;21.272;2022-12-18T09:25:44;17.73;;;10.73;;
71513;SDS011;59335;46.652;21.272;2022-12-18T09:28:47;18.60;;;11.00;;
71513;SDS011;59335;46.652;21.272;2022-12-18T09:31:50;15.57;;;9.87;;
71513;SDS011;59335;46.652;21.272;2022-12-18T09:34:54;17.60;;;11.32;;
71513;SDS011;59335;46.652;21.272;2022-12-18T09:37:56;18.33;;;10.73;;
71513;SDS011;59335;46.652;21.272;2022-12-18T09:41:00;18.95;;;11.63;;
71513;SDS011;59335;46.652;21.272;2022-12-18T09:47:30;16.93;;;10.60;;
71513;SDS011;59335;46.652;21.272;2022-12-18T09:50:39;17.42;;;10.88;;
71513;SDS011;59335;46.652;21.272;2022-12-18T09:53:44;16.77;;;10.93;;
71513;SDS011;59335;46.652;21.272;2022-12-18T09:56:52;17.02;;;10.70;;
71513;SDS011;59335;46.652;21.272;2022-12-18T09:59:58;18.13;;;11.45;;
71513;SDS011;59335;46.652;21.272;2022-12-18T10:03:15;18.30;;;10.93;;
71513;SDS011;59335;46.652;21.272;2022-12-18T10:10:01;19.83;;;12.18;;
71513;SDS011;59335;46.652;21.272;2022-12-18T10:13:12;19.48;;;11.27;;
71513;SDS011;59335;46.652;21.272;2022-12-18T10:19:50;17.93;;;10.87;;
71513;SDS011;59335;46.652;21.272;2022-12-18T10:26:10;18.42;;;11.57;;
71513;SDS011;59335;46.652;21.272;2022-12-18T10:29:16;18.35;;;11.27;;
71513;SDS011;59335;46.652;21.272;2022-12-18T10:32:20;17.70;;;10.93;;
71513;SDS011;59335;46.652;21.272;2022-12-18T10:35:25;17.83;;;11.67;;
71513;SDS011;59335;46.652;21.272;2022-12-18T10:38:32;17.98;;;10.65;;
71513;SDS011;59335;46.652;21.272;2022-12-18T10:41:35;17.90;;;11.20;;
71513;SDS011;59335;46.652;21.272;2022-12-18T10:44:37;18.90;;;11.18;;
71513;SDS011;59335;46.652;21.272;2022-12-18T10:47:44;18.40;;;11.70;;
71513;SDS011;59335;46.652;21.272;2022-12-18T10:50:50;17.03;;;10.20;;
71513;SDS011;59335;46.652;21.272;2022-12-18T10:54:14;18.95;;;11.00;;
71513;SDS011;59335;46.652;21.272;2022-12-18T11:00:29;19.08;;;11.23;;
71513;SDS011;59335;46.652;21.272;2022-12-18T11:04:17;17.70;;;11.32;;
71513;SDS011;59335;46.652;21.272;2022-12-18T11:07:04;16.50;;;10.50;;
71513;SDS011;59335;46.652;21.272;2022-12-18T11:10:15;16.65;;;10.65;;
71513;SDS011;59335;46.652;21.272;2022-12-18T11:13:22;19.00;;;10.88;;
71513;SDS011;59335;46.652;21.272;2022-12-18T11:16:27;18.20;;;11.20;;
71513;SDS011;59335;46.652;21.272;2022-12-18T11:22:39;17.90;;;11.20;;
71513;SDS011;59335;46.652;21.272;2022-12-18T11:25:53;17.92;;;11.10;;
71513;SDS011;59335;46.652;21.272;2022-12-18T11:29:09;18.48;;;11.13;;
71513;SDS011;59335;46.652;21.272;2022-12-18T11:35:47;16.88;;;10.52;;
71513;SDS011;59335;46.652;21.272;2022-12-18T11:38:56;16.63;;;10.53;;
71513;SDS011;59335;46.652;21.272;2022-12-18T11:45:26;18.13;;;11.45;;
71513;SDS011;59335;46.652;21.272;2022-12-18T11:48:37;18.23;;;11.35;;
71513;SDS011;59335;46.652;21.272;2022-12-18T11:54:56;17.57;;;10.70;;
71513;SDS011;59335;46.652;21.272;2022-12-18T12:01:55;18.83;;;11.40;;
71513;SDS011;59335;46.652;21.272;2022-12-18T12:08:41;16.95;;;10.75;;
71513;SDS011;59335;46.652;21.272;2022-12-18T12:22:57;16.83;;;10.38;;
71513;SDS011;59335;46.652;21.272;2022-12-18T12:33:18;16.65;;;10.52;;
71513;SDS011;59335;46.652;21.272;2022-12-18T12:36:44;15.88;;;10.23;;
71513;SDS011;59335;46.652;21.272;2022-12-18T12:39:58;16.90;;;10.65;;
71513;SDS011;59335;46.652;21.272;2022-12-18T12:43:21;17.45;;;10.43;;
71513;SDS011;59335;46.652;21.272;2022-12-18T12:46:31;17.20;;;10.67;;
71513;SDS011;59335;46.652;21.272;2022-12-18T12:49:37;17.17;;;10.90;;
71513;SDS011;59335;46.652;21.272;2022-12-18T12:52:43;17.38;;;10.15;;
71513;SDS011;59335;46.652;21.272;2022-12-18T12:55:50;17.67;;;10.23;;
71513;SDS011;59335;46.652;21.272;2022-12-18T13:02:25;15.77;;;9.73;;
71513;SDS011;59335;46.652;21.272;2022-12-18T13:05:54;18.33;;;10.75;;
71513;SDS011;59335;46.652;21.272;2022-12-18T13:09:04;15.90;;;10.20;;
71513;SDS011;59335;46.652;21.272;2022-12-18T13:12:10;19.45;;;10.45;;
71513;SDS011;59335;46.652;21.272;2022-12-18T13:18:47;16.63;;;10.57;;
71513;SDS011;59335;46.652;21.272;2022-12-18T13:21:55;16.25;;;10.05;;
71513;SDS011;59335;46.652;21.272;2022-12-18T13:24:59;16.00;;;10.00;;
71513;SDS011;59335;46.652;21.272;2022-12-18T13:28:15;19.13;;;10.10;;
71513;SDS011;59335;46.652;21.272;2022-12-18T13:34:44;16.27;;;10.33;;
71513;SDS011;59335;46.652;21.272;2022-12-18T13:37:53;16.27;;;10.07;;
71513;SDS011;59335;46.652;21.272;2022-12-18T13:41:00;16.52;;;9.80;;
71513;SDS011;59335;46.652;21.272;2022-12-18T13:47:42;16.15;;;9.93;;
71513;SDS011;59335;46.652;21.272;2022-12-18T13:50:53;17.13;;;10.40;;
71513;SDS011;59335;46.652;21.272;2022-12-18T13:54:32;16.27;;;10.05;;
71513;SDS011;59335;46.652;21.272;2022-12-18T13:57:43;17.27;;;10.38;;
71513;SDS011;59335;46.652;21.272;2022-12-18T14:00:45;15.57;;;10.32;;
71513;SDS011;59335;46.652;21.272;2022-12-18T14:03:49;16.42;;;10.52;;
71513;SDS011;59335;46.652;21.272;2022-12-18T14:06:54;17.00;;;10.23;;
71513;SDS011;59335;46.652;21.272;2022-12-18T14:09:59;16.08;;;9.98;;
71513;SDS011;59335;46.652;21.272;2022-12-18T14:13:27;17.25;;;10.48;;
71513;SDS011;59335;46.652;21.272;2022-12-18T14:16:36;16.70;;;9.90;;
71513;SDS011;59335;46.652;21.272;2022-12-18T14:19:46;15.20;;;10.23;;
71513;SDS011;59335;46.652;21.272;2022-12-18T14:22:51;17.37;;;10.30;;
71513;SDS011;59335;46.652;21.272;2022-12-18T14:25:54;16.88;;;10.07;;
71513;SDS011;59335;46.652;21.272;2022-12-18T14:32:27;19.45;;;11.27;;
71513;SDS011;59335;46.652;21.272;2022-12-18T14:35:30;16.25;;;10.63;;
71513;SDS011;59335;46.652;21.272;2022-12-18T14:38:33;17.70;;;10.90;;
71513;SDS011;59335;46.652;21.272;2022-12-18T14:41:37;19.77;;;11.20;;
71513;SDS011;59335;46.652;21.272;2022-12-18T14:44:40;17.65;;;10.57;;
71513;SDS011;59335;46.652;21.272;2022-12-18T14:48:07;18.13;;;11.20;;
71513;SDS011;59335;46.652;21.272;2022-12-18T14:51:18;19.05;;;11.40;;
71513;SDS011;59335;46.652;21.272;2022-12-18T14:54:27;18.40;;;11.00;;
71513;SDS011;59335;46.652;21.272;2022-12-18T14:57:36;15.95;;;10.50;;
71513;SDS011;59335;46.652;21.272;2022-12-18T15:00:41;16.90;;;11.05;;
71513;SDS011;59335;46.652;21.272;2022-12-18T15:03:44;17.95;;;10.95;;
71513;SDS011;59335;46.652;21.272;2022-12-18T15:06:48;18.20;;;11.10;;
71513;SDS011;59335;46.652;21.272;2022-12-18T15:13:24;18.38;;;11.23;;
71513;SDS011;59335;46.652;21.272;2022-12-18T15:16:29;17.02;;;10.82;;
71513;SDS011;59335;46.652;21.272;2022-12-18T15:19:39;17.67;;;11.30;;
71513;SDS011;59335;46.652;21.272;2022-12-18T15:22:44;18.77;;;11.55;;
71513;SDS011;59335;46.652;21.272;2022-12-18T15:29:16;18.23;;;10.32;;
71513;SDS011;59335;46.652;21.272;2022-12-18T15:32:24;19.15;;;11.07;;
71513;SDS011;59335;46.652;21.272;2022-12-18T15:35:28;17.08;;;10.77;;
71513;SDS011;59335;46.652;21.272;2022-12-18T15:38:34;18.88;;;11.20;;
71513;SDS011;59335;46.652;21.272;2022-12-18T15:41:39;19.20;;;11.40;;
71513;SDS011;59335;46.652;21.272;2022-12-18T15:44:42;18.48;;;11.88;;
71513;SDS011;59335;46.652;21.272;2022-12-18T15:47:48;19.80;;;11.93;;
71513;SDS011;59335;46.652;21.272;2022-12-18T15:50:53;19.30;;;11.68;;
71513;SDS011;59335;46.652;21.272;2022-12-18T15:54:01;21.10;;;11.88;;
71513;SDS011;59335;46.652;21.272;2022-12-18T15:57:12;20.27;;;11.60;;
71513;SDS011;59335;46.652;21.272;2022-12-18T16:00:28;19.15;;;11.48;;
71513;SDS011;59335;46.652;21.272;2022-12-18T16:03:31;20.40;;;12.32;;
71513;SDS011;59335;46.652;21.272;2022-12-18T16:06:35;19.20;;;11.45;;
71513;SDS011;59335;46.652;21.272;2022-12-18T16:09:58;20.88;;;12.75;;
71513;SDS011;59335;46.652;21.272;2022-12-18T16:13:03;20.87;;;12.73;;
71513;SDS011;59335;46.652;21.272;2022-12-18T16:16:08;21.88;;;12.45;;
71513;SDS011;59335;46.652;21.272;2022-12-18T16:19:12;22.27;;;13.45;;
71513;SDS011;59335;46.652;21.272;2022-12-18T16:22:20;21.02;;;12.30;;
71513;SDS011;59335;46.652;21.272;2022-12-18T16:25:27;24.10;;;13.88;;
71513;SDS011;59335;46.652;21.272;2022-12-18T16:28:31;22.93;;;13.90;;
71513;SDS011;59335;46.652;21.272;2022-12-18T16:31:37;23.05;;;13.65;;
71513;SDS011;59335;46.652;21.272;2022-12-18T16:34:41;22.60;;;14.35;;
71513;SDS011;59335;46.652;21.272;2022-12-18T16:37:45;22.83;;;14.13;;
71513;SDS011;59335;46.652;21.272;2022-12-18T16:40:49;23.98;;;14.18;;
71513;SDS011;59335;46.652;21.272;2022-12-18T16:44:13;22.83;;;13.67;;
71513;SDS011;59335;46.652;21.272;2022-12-18T16:47:17;23.65;;;13.55;;
71513;SDS011;59335;46.652;21.272;2022-12-18T16:50:22;23.27;;;13.65;;
71513;SDS011;59335;46.652;21.272;2022-12-18T16:53:28;24.40;;;14.95;;
71513;SDS011;59335;46.652;21.272;2022-12-18T16:56:34;22.17;;;13.82;;
71513;SDS011;59335;46.652;21.272;2022-12-18T16:59:38;23.10;;;14.10;;
71513;SDS011;59335;46.652;21.272;2022-12-18T17:02:42;22.73;;;13.80;;
71513;SDS011;59335;46.652;21.272;2022-12-18T17:05:49;24.23;;;14.43;;
71513;SDS011;59335;46.652;21.272;2022-12-18T17:08:55;24.70;;;13.98;;
71513;SDS011;59335;46.652;21.272;2022-12-18T17:12:00;26.13;;;14.82;;
71513;SDS011;59335;46.652;21.272;2022-12-18T17:15:06;23.33;;;13.67;;
71513;SDS011;59335;46.652;21.272;2022-12-18T17:18:11;24.85;;;14.45;;
71513;SDS011;59335;46.652;21.272;2022-12-18T17:21:14;23.88;;;15.10;;
71513;SDS011;59335;46.652;21.272;2022-12-18T17:24:19;25.48;;;14.88;;
71513;SDS011;59335;46.652;21.272;2022-12-18T17:27:22;23.50;;;14.50;;
71513;SDS011;59335;46.652;21.272;2022-12-18T17:30:27;25.73;;;14.63;;
71513;SDS011;59335;46.652;21.272;2022-12-18T17:33:33;24.40;;;15.32;;
71513;SDS011;59335;46.652;21.272;2022-12-18T17:36:38;24.27;;;15.05;;
71513;SDS011;59335;46.652;21.272;2022-12-18T17:39:43;24.85;;;14.90;;
71513;SDS011;59335;46.652;21.272;2022-12-18T17:42:48;25.88;;;15.68;;
71513;SDS011;59335;46.652;21.272;2022-12-18T17:46:00;24.97;;;15.20;;
71513;SDS011;59335;46.652;21.272;2022-12-18T17:49:09;26.92;;;16.45;;
71513;SDS011;59335;46.652;21.272;2022-12-18T17:52:14;26.70;;;16.65;;
71513;SDS011;59335;46.652;21.272;2022-12-18T17:55:18;25.70;;;15.38;;
71513;SDS011;59335;46.652;21.272;2022-12-18T17:58:23;26.33;;;17.00;;
71513;SDS011;59335;46.652;21.272;2022-12-18T18:01:26;25.07;;;15.73;;
71513;SDS011;59335;46.652;21.272;2022-12-18T18:04:30;28.67;;;17.35;;
71513;SDS011;59335;46.652;21.272;2022-12-18T18:07:34;24.58;;;15.68;;
71513;SDS011;59335;46.652;21.272;2022-12-18T18:10:38;25.77;;;16.48;;
71513;SDS011;59335;46.652;21.272;2022-12-18T18:13:44;25.15;;;16.10;;
71513;SDS011;59335;46.652;21.272;2022-12-18T18:17:04;24.40;;;14.90;;
71513;SDS011;59335;46.652;21.272;2022-12-18T18:20:09;28.35;;;17.08;;
71513;SDS011;59335;46.652;21.272;2022-12-18T18:23:12;26.05;;;16.27;;
71513;SDS011;59335;46.652;21.272;2022-12-18T18:26:16;28.50;;;17.52;;
71513;SDS011;59335;46.652;21.272;2022-12-18T18:29:22;27.15;;;17.23;;
71513;SDS011;59335;46.652;21.272;2022-12-18T18:32:29;26.67;;;16.83;;
71513;SDS011;59335;46.652;21.272;2022-12-18T18:35:33;28.45;;;17.45;;
71513;SDS011;59335;46.652;21.272;2022-12-18T18:38:58;26.60;;;16.92;;
71513;SDS011;59335;46.652;21.272;2022-12-18T18:42:03;27.40;;;16.60;;
71513;SDS011;59335;46.652;21.272;2022-12-18T18:45:09;27.75;;;17.35;;
71513;SDS011;59335;46.652;21.272;2022-12-18T18:48:12;28.37;;;16.47;;
71513;SDS011;59335;46.652;21.272;2022-12-18T18:51:16;28.85;;;17.13;;
71513;SDS011;59335;46.652;21.272;2022-12-18T18:54:23;26.58;;;17.40;;
71513;SDS011;59335;46.652;21.272;2022-12-18T18:57:29;28.05;;;17.30;;
71513;SDS011;59335;46.652;21.272;2022-12-18T19:00:32;27.45;;;17.30;;
71513;SDS011;59335;46.652;21.272;2022-12-18T19:03:37;26.43;;;16.27;;
71513;SDS011;59335;46.652;21.272;2022-12-18T19:06:41;28.83;;;17.38;;
71513;SDS011;59335;46.652;21.272;2022-12-18T19:09:47;27.95;;;17.60;;
71513;SDS011;59335;46.652;21.272;2022-12-18T19:12:53;28.15;;;16.42;;
71513;SDS011;59335;46.652;21.272;2022-12-18T19:16:16;27.30;;;17.15;;
71513;SDS011;59335;46.652;21.272;2022-12-18T19:19:23;26.67;;;16.23;;
71513;SDS011;59335;46.652;21.272;2022-12-18T19:22:27;28.05;;;17.02;;
71513;SDS011;59335;46.652;21.272;2022-12-18T19:25:31;28.88;;;17.88;;
71513;SDS011;59335;46.652;21.272;2022-12-18T19:28:42;28.52;;;17.98;;
71513;SDS011;59335;46.652;21.272;2022-12-18T19:31:48;27.33;;;16.85;;
71513;SDS011;59335;46.652;21.272;2022-12-18T19:34:56;26.83;;;16.47;;
71513;SDS011;59335;46.652;21.272;2022-12-18T19:38:01;28.25;;;16.42;;